createdAt,value
2018-06-08T00:01:02.986Z,0.30
2018-06-08T00:03:29.834Z,0.50
2018-06-08T00:05:58.370Z,0.40
2018-06-08T00:08:25.786Z,0.37
2018-06-08T00:10:53.057Z,0.43
2018-06-08T00:13:20.604Z,0.33
2018-06-08T00:15:47.658Z,0.50
2018-06-08T00:18:15.021Z,0.30
2018-06-08T00:20:41.967Z,0.50
2018-06-08T00:23:09.235Z,0.40
2018-06-08T00:25:37.059Z,0.30
2018-06-08T00:28:05.991Z,0.50
2018-06-08T00:30:32.941Z,0.50
2018-06-08T00:32:59.893Z,0.40
2018-06-08T00:35:26.744Z,0.30
2018-06-08T00:37:53.592Z,0.47
2018-06-08T00:40:20.543Z,0.50
2018-06-08T00:42:47.390Z,0.50
2018-06-08T00:45:14.648Z,0.43
2018-06-08T00:47:41.496Z,0.50
2018-06-08T00:50:08.345Z,0.33
2018-06-08T00:52:35.193Z,0.50
2018-06-08T00:55:01.943Z,0.30
2018-06-08T00:57:28.711Z,0.33
2018-06-08T00:59:55.536Z,0.30
2018-06-08T01:02:22.385Z,0.30
2018-06-08T01:04:49.130Z,0.30
2018-06-08T01:07:15.983Z,0.40
2018-06-08T01:09:42.827Z,0.40
2018-06-08T01:12:09.676Z,0.33
2018-06-08T01:14:36.935Z,0.50
2018-06-08T01:17:03.883Z,0.40
2018-06-08T01:19:30.936Z,0.60
2018-06-08T01:21:57.722Z,0.37
2018-06-08T01:24:25.966Z,0.50
2018-06-08T01:26:52.813Z,0.30
2018-06-08T01:29:19.662Z,0.47
2018-06-08T01:31:46.410Z,0.40
2018-06-08T01:34:13.569Z,0.40
2018-06-08T01:36:40.516Z,0.30
2018-06-08T01:39:07.362Z,0.43
2018-06-08T01:41:34.157Z,0.40
2018-06-08T01:44:01.650Z,0.40
2018-06-08T01:46:28.528Z,0.40
2018-06-08T01:48:55.371Z,0.50
2018-06-08T01:51:22.223Z,0.50
2018-06-08T01:53:49.070Z,0.40
2018-06-08T01:56:16.123Z,0.40
2018-06-08T01:58:42.868Z,0.50
2018-06-08T02:01:09.717Z,0.60
2018-06-08T02:03:36.667Z,0.37
2018-06-08T02:06:03.625Z,0.37
2018-06-08T02:08:30.571Z,0.30
2018-06-08T02:10:57.523Z,0.40
2018-06-08T02:13:24.369Z,0.47
2018-06-08T02:15:51.114Z,0.50
2018-06-08T02:18:18.068Z,0.30
2018-06-08T02:20:45.733Z,0.50
2018-06-08T02:23:12.684Z,0.40
2018-06-08T02:25:39.533Z,0.40
2018-06-08T02:28:06.382Z,0.50
2018-06-08T02:30:33.130Z,0.40
2018-06-08T02:32:59.977Z,0.30
2018-06-08T02:35:26.835Z,0.40
2018-06-08T02:37:53.673Z,0.50
2018-06-08T02:40:20.529Z,0.40
2018-06-08T02:42:47.372Z,0.43
2018-06-08T02:45:14.638Z,0.40
2018-06-08T02:47:41.478Z,0.53
2018-06-08T02:50:08.327Z,0.30
2018-06-08T02:52:35.280Z,0.40
2018-06-08T02:55:02.230Z,0.47
2018-06-08T02:57:29.181Z,0.40
2018-06-08T02:59:57.052Z,0.50
2018-06-08T03:02:23.766Z,0.50
2018-06-08T03:04:50.544Z,0.50
2018-06-08T03:07:17.392Z,0.50
2018-06-08T03:09:44.345Z,0.53
2018-06-08T03:12:11.163Z,0.50
2018-06-08T03:14:38.859Z,0.30
2018-06-08T03:17:05.812Z,0.40
2018-06-08T03:19:32.662Z,0.40
2018-06-08T03:21:59.713Z,0.50
2018-06-08T03:24:26.715Z,0.40
2018-06-08T03:26:54.739Z,0.50
2018-06-08T03:29:21.589Z,0.50
2018-06-08T03:31:48.438Z,0.60
2018-06-08T03:34:15.217Z,0.60
2018-06-08T03:36:43.423Z,0.40
2018-06-08T03:39:11.131Z,0.40
2018-06-08T03:41:37.877Z,0.50
2018-06-08T03:44:05.547Z,0.50
2018-06-08T03:46:32.494Z,0.57
2018-06-08T03:48:59.363Z,0.47
2018-06-08T03:51:26.193Z,0.50
2018-06-08T03:53:53.143Z,0.50
2018-06-08T03:56:19.903Z,0.40
2018-06-08T03:58:46.743Z,0.50
2018-06-08T04:01:13.591Z,0.70
2018-06-08T04:03:40.536Z,0.50
2018-06-08T04:06:07.304Z,0.40
2018-06-08T04:08:34.134Z,0.57
2018-06-08T04:11:00.981Z,0.50
2018-06-08T04:13:27.728Z,0.40
2018-06-08T04:15:54.598Z,0.60
2018-06-08T04:18:21.529Z,0.40
2018-06-08T04:20:48.377Z,0.40
2018-06-08T04:23:16.043Z,0.50
2018-06-08T04:25:42.943Z,0.30
2018-06-08T04:28:10.459Z,0.40
2018-06-08T04:30:37.718Z,0.43
2018-06-08T04:33:04.823Z,0.40
2018-06-08T04:35:32.542Z,0.30
2018-06-08T04:37:59.280Z,0.30
2018-06-08T04:40:26.057Z,0.50
2018-06-08T04:42:54.008Z,0.30
2018-06-08T04:45:20.854Z,0.20
2018-06-08T04:47:47.805Z,0.22
2018-06-08T04:50:14.766Z,0.28
2018-06-08T04:52:41.604Z,0.40
2018-06-08T04:55:08.556Z,0.40
2018-06-08T04:57:35.403Z,0.52
2018-06-08T05:00:02.355Z,0.30
2018-06-08T05:02:29.511Z,0.43
2018-06-08T05:04:56.462Z,0.40
2018-06-08T05:07:23.410Z,0.30
2018-06-08T05:09:50.365Z,0.40
2018-06-08T05:12:17.206Z,0.45
2018-06-08T05:14:44.058Z,0.57
2018-06-08T05:17:10.959Z,0.40
2018-06-08T05:19:38.678Z,0.40
2018-06-08T05:22:06.959Z,0.40
2018-06-08T05:24:34.626Z,0.60
2018-06-08T05:27:01.476Z,0.50
2018-06-08T05:29:28.284Z,0.50
2018-06-08T05:31:55.072Z,0.40
2018-06-08T05:34:22.228Z,0.50
2018-06-08T05:36:49.019Z,0.40
2018-06-08T05:39:16.640Z,0.30
2018-06-08T05:41:43.690Z,0.35
2018-06-08T05:44:10.590Z,0.43
2018-06-08T05:46:37.494Z,0.50
2018-06-08T05:49:04.442Z,0.40
2018-06-08T05:51:31.190Z,0.37
2018-06-08T05:53:58.036Z,0.30
2018-06-08T05:56:24.808Z,0.40
2018-06-08T05:58:51.553Z,0.40
2018-06-08T06:01:25.851Z,0.50
2018-06-08T06:03:52.807Z,0.32
2018-06-08T06:06:19.651Z,0.40
2018-06-08T06:08:46.497Z,0.50
2018-06-08T06:11:13.450Z,0.50
2018-06-08T06:13:40.298Z,0.50
2018-06-08T06:16:07.153Z,0.43
2018-06-08T06:18:34.098Z,0.40
2018-06-08T06:21:01.131Z,0.50
2018-06-08T06:23:27.996Z,0.40
2018-06-08T06:25:55.768Z,0.40
2018-06-08T06:28:24.149Z,0.43
2018-06-08T06:30:51.101Z,0.40
2018-06-08T06:33:17.952Z,0.50
2018-06-08T06:35:44.799Z,0.50
2018-06-08T06:38:11.752Z,0.50
2018-06-08T06:40:38.597Z,0.60
2018-06-08T06:43:05.451Z,0.50
2018-06-08T06:45:32.295Z,0.80
2018-06-08T06:47:59.092Z,0.70
2018-06-08T06:50:26.299Z,0.80
2018-06-08T06:52:53.147Z,0.70
2018-06-08T06:55:20.101Z,0.82
2018-06-08T06:57:47.053Z,0.70
2018-06-08T07:00:13.903Z,0.80
2018-06-08T07:02:41.259Z,0.70
2018-06-08T07:05:08.005Z,0.80
2018-06-08T07:07:34.853Z,0.90
2018-06-08T07:10:01.809Z,1.00
2018-06-08T07:12:28.756Z,0.75
2018-06-08T07:14:55.706Z,0.80
2018-06-08T07:17:22.557Z,0.77
2018-06-08T07:19:49.507Z,0.80
2018-06-08T07:22:16.456Z,0.90
2018-06-08T07:24:43.312Z,0.77
2018-06-08T07:27:10.155Z,1.00
2018-06-08T07:29:37.005Z,0.90
2018-06-08T07:32:03.988Z,0.80
2018-06-08T07:34:31.621Z,0.90
2018-06-08T07:36:58.473Z,0.80
2018-06-08T07:39:25.419Z,0.90
2018-06-08T07:41:52.165Z,1.00
2018-06-08T07:44:19.116Z,0.80
2018-06-08T07:46:45.983Z,0.90
2018-06-08T07:49:12.941Z,0.88
2018-06-08T07:51:39.869Z,0.70
2018-06-08T07:54:06.615Z,0.77
2018-06-08T07:56:34.402Z,0.77
2018-06-08T07:59:01.162Z,0.88
2018-06-08T08:01:29.409Z,0.77
2018-06-08T08:03:56.362Z,0.60
2018-06-08T08:06:23.927Z,0.70
2018-06-08T08:08:50.778Z,0.60
2018-06-08T08:11:17.727Z,0.73
2018-06-08T08:13:44.579Z,0.70
2018-06-08T08:16:11.434Z,0.70
2018-06-08T08:18:38.684Z,0.70
2018-06-08T08:21:05.531Z,0.50
2018-06-08T08:23:32.379Z,0.57
2018-06-08T08:25:59.331Z,0.50
2018-06-08T08:28:27.102Z,0.50
2018-06-08T08:30:53.948Z,0.40
2018-06-08T08:33:20.899Z,0.45
2018-06-08T08:35:47.849Z,0.40
2018-06-08T08:38:14.703Z,0.57
2018-06-08T08:40:41.754Z,0.40
2018-06-08T08:43:09.318Z,0.50
2018-06-08T08:45:36.334Z,0.70
2018-06-08T08:48:03.859Z,0.60
2018-06-08T08:50:32.319Z,0.50
2018-06-08T08:52:59.168Z,0.40
2018-06-08T08:55:26.119Z,0.45
2018-06-08T08:57:52.965Z,0.47
2018-06-08T09:00:19.819Z,0.35
2018-06-08T09:02:46.765Z,0.40
2018-06-08T09:05:13.620Z,0.30
2018-06-08T09:07:40.470Z,0.30
2018-06-08T09:10:07.416Z,0.30
2018-06-08T09:12:34.571Z,0.30
2018-06-08T09:15:01.527Z,0.43
2018-06-08T09:17:28.472Z,0.40
2018-06-08T09:19:55.424Z,0.43
2018-06-08T09:22:22.273Z,0.37
2018-06-08T09:24:49.462Z,0.40
2018-06-08T09:27:17.915Z,0.40
2018-06-08T09:29:44.761Z,0.30
2018-06-08T09:32:11.715Z,0.35
2018-06-08T09:34:38.562Z,0.40
2018-06-08T09:37:05.409Z,0.30
2018-06-08T09:39:32.260Z,0.60
2018-06-08T09:41:59.415Z,0.35
2018-06-08T09:44:26.203Z,0.32
2018-06-08T09:46:53.010Z,0.30
2018-06-08T09:49:19.859Z,0.50
2018-06-08T09:51:46.807Z,0.50
2018-06-08T09:54:13.672Z,0.50
2018-06-08T09:56:40.504Z,0.30
2018-06-08T09:59:07.456Z,0.32
2018-06-08T10:01:34.304Z,0.35
2018-06-08T10:04:01.256Z,0.40
2018-06-08T10:06:28.109Z,0.57
2018-06-08T10:08:54.875Z,0.32
2018-06-08T10:11:21.783Z,0.40
2018-06-08T10:13:48.652Z,0.30
2018-06-08T10:16:15.499Z,0.37
2018-06-08T10:18:42.653Z,0.30
2018-06-08T10:21:09.504Z,0.40
2018-06-08T10:23:36.361Z,0.40
2018-06-08T10:26:03.104Z,0.43
2018-06-08T10:28:30.055Z,0.40
2018-06-08T10:30:57.002Z,0.37
2018-06-08T10:33:23.874Z,0.57
2018-06-08T10:35:50.801Z,0.40
2018-06-08T10:38:17.755Z,0.40
2018-06-08T10:40:45.012Z,0.40
2018-06-08T10:43:11.859Z,0.55
2018-06-08T10:45:38.807Z,0.40
2018-06-08T10:48:05.658Z,0.50
2018-06-08T10:50:32.506Z,0.40
2018-06-08T10:52:59.351Z,0.40
2018-06-08T10:55:26.302Z,0.32
2018-06-08T10:57:53.052Z,0.40
2018-06-08T11:00:19.901Z,0.50
2018-06-08T11:02:46.852Z,0.40
2018-06-08T11:05:13.699Z,0.40
2018-06-08T11:07:40.593Z,0.40
2018-06-08T11:10:07.496Z,0.57
2018-06-08T11:12:34.452Z,0.50
2018-06-08T11:15:01.408Z,0.55
2018-06-08T11:17:28.452Z,0.40
2018-06-08T11:19:55.452Z,0.43
2018-06-08T11:22:23.788Z,0.43
2018-06-08T11:24:50.532Z,0.50
2018-06-08T11:27:17.486Z,0.50
2018-06-08T11:29:44.331Z,0.30
2018-06-08T11:32:12.002Z,0.40
2018-06-08T11:34:38.950Z,0.30
2018-06-08T11:37:05.806Z,0.40
2018-06-08T11:39:32.643Z,0.65
2018-06-08T11:41:59.395Z,0.40
2018-06-08T11:44:26.244Z,0.52
2018-06-08T11:46:53.612Z,0.60
2018-06-08T11:49:20.453Z,0.52
2018-06-08T11:51:47.303Z,0.52
2018-06-08T11:54:14.252Z,0.50
2018-06-08T11:56:41.100Z,0.40
2018-06-08T11:59:07.862Z,0.40
2018-06-08T12:01:34.800Z,0.50
2018-06-08T12:04:01.752Z,0.50
2018-06-08T12:06:28.599Z,0.50
2018-06-08T12:08:55.567Z,0.70
2018-06-08T12:11:22.400Z,0.50
2018-06-08T12:13:49.350Z,0.60
2018-06-08T12:16:16.324Z,0.43
2018-06-08T12:18:43.252Z,0.50
2018-06-08T12:21:10.305Z,0.50
2018-06-08T12:23:37.254Z,0.50
2018-06-08T12:26:04.106Z,0.62
2018-06-08T12:28:30.950Z,0.55
2018-06-08T12:30:57.799Z,0.40
2018-06-08T12:33:25.365Z,0.40
2018-06-08T12:35:52.211Z,0.47
2018-06-08T12:38:18.961Z,0.50
2018-06-08T12:40:45.808Z,0.60
2018-06-08T12:43:12.586Z,0.50
2018-06-08T12:45:39.506Z,0.40
2018-06-08T12:48:06.455Z,0.50
2018-06-08T12:50:33.409Z,0.40
2018-06-08T12:53:00.203Z,0.47
2018-06-08T12:55:27.720Z,0.50
2018-06-08T12:57:54.569Z,0.50
2018-06-08T13:00:21.414Z,0.43
2018-06-08T13:02:48.367Z,0.50
2018-06-08T13:05:15.318Z,0.40
2018-06-08T13:07:42.481Z,0.50
2018-06-08T13:10:09.426Z,0.47
2018-06-08T13:12:36.379Z,0.40
2018-06-08T13:15:03.333Z,0.30
2018-06-08T13:17:30.481Z,0.40
2018-06-08T13:19:57.331Z,0.30
2018-06-08T13:22:24.178Z,0.30
2018-06-08T13:24:51.436Z,0.30
2018-06-08T13:27:18.390Z,0.22
2018-06-08T13:29:45.234Z,0.20
2018-06-08T13:32:12.091Z,0.20
2018-06-08T13:34:39.037Z,0.20
2018-06-08T13:37:05.785Z,0.20
2018-06-08T13:39:32.744Z,0.30
2018-06-08T13:42:00.504Z,0.40
2018-06-08T13:44:27.349Z,0.20
2018-06-08T13:46:54.201Z,0.20
2018-06-08T13:49:21.004Z,0.20
2018-06-08T13:51:48.509Z,0.20
2018-06-08T13:54:15.357Z,0.23
2018-06-08T13:56:42.226Z,0.40
2018-06-08T13:59:09.056Z,0.30
2018-06-08T14:01:35.806Z,0.20
2018-06-08T14:04:02.654Z,0.20
2018-06-08T14:06:29.396Z,0.20
2018-06-08T14:08:56.243Z,0.10
2018-06-08T14:11:23.195Z,0.20
2018-06-08T14:13:50.043Z,0.27
2018-06-08T14:16:16.994Z,0.20
2018-06-08T14:18:43.845Z,0.20
2018-06-08T14:21:10.695Z,0.20
2018-06-08T14:23:37.643Z,0.30
2018-06-08T14:26:04.491Z,0.20
2018-06-08T14:28:31.444Z,0.30
2018-06-08T14:30:58.290Z,0.10
2018-06-08T14:33:25.038Z,0.20
2018-06-08T14:35:52.810Z,0.20
2018-06-08T14:38:19.698Z,0.20
2018-06-08T14:40:46.506Z,0.20
2018-06-08T14:43:13.456Z,0.40
2018-06-08T14:45:40.305Z,0.30
2018-06-08T14:48:07.156Z,0.20
2018-06-08T14:50:34.104Z,0.20
2018-06-08T14:53:00.954Z,0.20
2018-06-08T14:55:27.807Z,0.20
2018-06-08T14:57:55.061Z,0.27
2018-06-08T15:00:22.037Z,0.17
2018-06-08T15:02:48.984Z,0.20
2018-06-08T15:05:15.809Z,0.10
2018-06-08T15:07:42.659Z,0.10
2018-06-08T15:10:09.510Z,0.10
2018-06-08T15:12:36.357Z,0.17
2018-06-08T15:15:03.214Z,0.10
2018-06-08T15:17:30.052Z,0.13
2018-06-08T15:19:56.901Z,0.20
2018-06-08T15:22:23.885Z,0.20
2018-06-08T15:24:50.804Z,0.30
2018-06-08T15:27:17.753Z,0.20
2018-06-08T15:29:51.564Z,0.30
2018-06-08T15:32:18.621Z,0.40
2018-06-08T15:34:45.464Z,0.20
2018-06-08T15:37:13.129Z,0.20
2018-06-08T15:39:39.979Z,0.30
2018-06-08T15:42:06.929Z,0.10
2018-06-08T15:44:33.884Z,0.23
2018-06-08T15:47:00.835Z,0.27
2018-06-08T15:49:27.550Z,0.30
2018-06-08T15:51:54.426Z,0.10
2018-06-08T15:54:21.194Z,0.10
2018-06-08T15:56:48.123Z,0.20
2018-06-08T15:59:14.975Z,0.30
2018-06-08T16:01:41.822Z,0.10
2018-06-08T16:04:08.774Z,0.13
2018-06-08T16:06:35.725Z,0.20
2018-06-08T16:09:02.675Z,0.20
2018-06-08T16:11:29.424Z,0.20
2018-06-08T16:13:56.472Z,0.13
2018-06-08T16:16:23.324Z,0.20
2018-06-08T16:18:50.271Z,0.20
2018-06-08T16:21:17.125Z,0.10
2018-06-08T16:23:44.075Z,0.10
2018-06-08T16:26:10.920Z,0.10
2018-06-08T16:28:37.871Z,0.17
2018-06-08T16:31:05.028Z,0.20
2018-06-08T16:33:31.881Z,0.30
2018-06-08T16:35:58.727Z,0.20
2018-06-08T16:38:26.391Z,0.10
2018-06-08T16:40:53.343Z,0.30
2018-06-08T16:43:20.191Z,0.10
2018-06-08T16:45:47.142Z,0.20
2018-06-08T16:48:13.913Z,0.17
2018-06-08T16:50:40.737Z,0.17
2018-06-08T16:53:07.483Z,0.20
2018-06-08T16:55:34.439Z,0.20
2018-06-08T16:58:01.285Z,0.10
2018-06-08T17:00:28.134Z,0.20
2018-06-08T17:02:54.982Z,0.10
2018-06-08T17:05:21.829Z,0.20
2018-06-08T17:07:48.678Z,0.10
2018-06-08T17:10:16.449Z,0.23
2018-06-08T17:12:43.402Z,0.10
2018-06-08T17:15:11.784Z,0.20
2018-06-08T17:17:39.520Z,0.20
2018-06-08T17:20:06.617Z,0.23
2018-06-08T17:22:33.597Z,0.20
2018-06-08T17:25:00.366Z,0.20
2018-06-08T17:27:27.201Z,0.23
2018-06-08T17:29:54.053Z,0.20
2018-06-08T17:32:20.783Z,0.20
2018-06-08T17:34:47.517Z,0.30
2018-06-08T17:37:14.310Z,0.10
2018-06-08T17:39:41.763Z,0.10
2018-06-08T17:42:09.227Z,0.10
2018-06-08T17:44:37.341Z,0.10
2018-06-08T17:47:04.064Z,0.47
2018-06-08T17:49:31.519Z,0.20
2018-06-08T17:51:59.003Z,0.20
2018-06-08T17:54:25.895Z,0.10
2018-06-08T17:56:52.708Z,0.10
2018-06-08T17:59:19.432Z,0.13
2018-06-08T18:01:46.138Z,0.20
2018-06-08T18:04:12.952Z,0.10
2018-06-08T18:06:39.759Z,0.47
2018-06-08T18:09:06.518Z,0.20
2018-06-08T18:11:33.397Z,0.20
2018-06-08T18:14:00.242Z,0.20
2018-06-08T18:16:27.191Z,0.30
2018-06-08T18:18:53.973Z,0.10
2018-06-08T18:21:21.615Z,0.20
2018-06-08T18:23:48.817Z,0.20
2018-06-08T18:26:16.599Z,0.10
2018-06-08T18:28:43.395Z,0.10
2018-06-08T18:31:10.334Z,0.10
2018-06-08T18:33:37.285Z,0.13
2018-06-08T18:36:04.130Z,0.10
2018-06-08T18:38:30.918Z,0.20
2018-06-08T18:40:58.442Z,0.10
2018-06-08T18:43:25.216Z,0.20
2018-06-08T18:45:52.039Z,0.57
2018-06-08T18:48:18.989Z,0.20
2018-06-08T18:50:46.764Z,0.30
2018-06-08T18:53:15.245Z,0.20
2018-06-08T18:55:41.946Z,0.20
2018-06-08T18:58:09.445Z,0.10
2018-06-08T19:00:36.245Z,0.30
2018-06-08T19:03:02.986Z,0.20
2018-06-08T19:05:29.756Z,0.13
2018-06-08T19:07:57.586Z,0.13
2018-06-08T19:10:24.677Z,0.27
2018-06-08T19:12:52.118Z,0.10
2018-06-08T19:15:19.033Z,0.10
2018-06-08T19:17:45.881Z,0.10
2018-06-08T19:20:14.279Z,0.20
2018-06-08T19:22:41.031Z,0.30
2018-06-08T19:25:08.598Z,0.23
2018-06-08T19:27:35.367Z,0.20
2018-06-08T19:30:02.156Z,0.43
2018-06-08T19:32:28.929Z,0.20
2018-06-08T19:34:56.436Z,0.20
2018-06-08T19:37:24.019Z,0.10
2018-06-08T19:39:50.723Z,0.27
2018-06-08T19:42:17.460Z,0.20
2018-06-08T19:44:44.249Z,0.30
2018-06-08T19:47:11.714Z,0.20
2018-06-08T19:49:38.521Z,0.20
2018-06-08T19:52:06.210Z,0.20
2018-06-08T19:54:33.034Z,0.27
2018-06-08T19:57:00.142Z,0.20
2018-06-08T19:59:26.955Z,0.23
2018-06-08T20:01:53.690Z,0.20
2018-06-08T20:04:20.493Z,0.10
2018-06-08T20:06:47.354Z,0.30
2018-06-08T20:09:14.102Z,0.20
2018-06-08T20:11:40.914Z,0.40
2018-06-08T20:14:08.402Z,0.23
2018-06-08T20:16:35.424Z,0.20
2018-06-08T20:19:02.693Z,0.30
2018-06-08T20:21:29.642Z,0.23
2018-06-08T20:23:57.196Z,0.20
2018-06-08T20:26:25.212Z,0.30
2018-06-08T20:28:51.945Z,0.33
2018-06-08T20:31:18.693Z,0.20
2018-06-08T20:33:45.414Z,0.40
2018-06-08T20:36:12.964Z,0.30
2018-06-08T20:38:40.508Z,0.20
2018-06-08T20:41:07.587Z,0.20
2018-06-08T20:43:34.790Z,0.20
2018-06-08T20:46:01.555Z,0.30
2018-06-08T20:48:28.471Z,0.30
2018-06-08T20:50:55.492Z,0.30
2018-06-08T20:53:22.979Z,0.33
2018-06-08T20:55:49.959Z,0.20
2018-06-08T20:58:17.687Z,0.40
2018-06-08T21:00:44.706Z,0.40
2018-06-08T21:03:11.442Z,0.20
2018-06-08T21:05:38.272Z,0.30
2018-06-08T21:08:05.118Z,0.30
2018-06-08T21:10:32.173Z,0.30
2018-06-08T21:12:59.173Z,0.40
2018-06-08T21:15:26.146Z,0.40
2018-06-08T21:17:52.912Z,0.40
2018-06-08T21:20:19.771Z,0.20
2018-06-08T21:22:46.626Z,0.20
2018-06-08T21:25:13.471Z,0.10
2018-06-08T21:27:41.751Z,0.20
2018-06-08T21:30:08.921Z,0.10
2018-06-08T21:32:35.650Z,0.30
2018-06-08T21:35:02.481Z,0.20
2018-06-08T21:37:29.254Z,0.20
2018-06-08T21:39:56.055Z,0.20
2018-06-08T21:42:23.556Z,0.37
2018-06-08T21:44:50.272Z,0.20
2018-06-08T21:47:17.869Z,0.30
2018-06-08T21:49:45.866Z,0.30
2018-06-08T21:52:13.514Z,0.20
2018-06-08T21:54:40.506Z,0.20
2018-06-08T21:57:08.950Z,0.20
2018-06-08T21:59:35.901Z,0.10
2018-06-08T22:02:03.467Z,0.30
2018-06-08T22:04:31.236Z,0.40
2018-06-08T22:06:58.803Z,0.30
2018-06-08T22:09:27.843Z,0.20
2018-06-08T22:11:55.157Z,0.23
2018-06-08T22:14:29.858Z,0.20
2018-06-08T22:16:57.552Z,0.30
2018-06-08T22:19:25.222Z,0.20
2018-06-08T22:21:52.070Z,0.30
2018-06-08T22:24:19.431Z,0.30
2018-06-08T22:26:46.322Z,0.20
2018-06-08T22:29:13.707Z,0.30
2018-06-08T22:31:41.444Z,0.17
2018-06-08T22:34:08.166Z,0.20
2018-06-08T22:36:35.104Z,0.30
2018-06-08T22:39:02.780Z,0.20
2018-06-08T22:41:29.721Z,0.30
2018-06-08T22:43:56.582Z,0.27
2018-06-08T22:46:23.420Z,0.30
2018-06-08T22:48:50.578Z,0.30
2018-06-08T22:51:17.425Z,0.30
2018-06-08T22:53:44.375Z,0.40
2018-06-08T22:56:11.532Z,0.30
2018-06-08T22:58:38.892Z,0.37
2018-06-08T23:01:05.637Z,0.40
2018-06-08T23:03:32.590Z,0.47
2018-06-08T23:05:59.333Z,0.30
2018-06-08T23:08:33.039Z,0.20
2018-06-08T23:10:59.887Z,0.40
2018-06-08T23:13:26.738Z,0.30
2018-06-08T23:15:53.587Z,0.30
2018-06-08T23:18:20.436Z,0.30
2018-06-08T23:20:47.281Z,0.40
2018-06-08T23:23:14.133Z,0.20
2018-06-08T23:25:40.979Z,0.30
2018-06-08T23:28:07.932Z,0.23
2018-06-08T23:30:34.676Z,0.40
2018-06-08T23:33:01.449Z,0.30
2018-06-08T23:35:28.267Z,0.30
2018-06-08T23:37:55.122Z,0.30
2018-06-08T23:40:22.890Z,0.20
2018-06-08T23:42:50.047Z,0.20
2018-06-08T23:45:16.997Z,0.30
2018-06-08T23:47:43.746Z,0.30
2018-06-08T23:50:10.592Z,0.33
2018-06-08T23:52:37.362Z,0.30
2018-06-08T23:55:04.288Z,0.23
2018-06-08T23:57:31.037Z,0.30
2018-06-08T23:59:57.805Z,0.30
